Time;durP1;ratioP1;P1;durP2;ratioP2;P2;SDS_P1;SDS_P2;PMS_P1;PMS_P2;Temp;Humidity;BMP_temperature;BMP_pressure;BME280_temperature;BME280_humidity;BME280_pressure;Samples;Min_cycle;Max_cycle;Signal;HPM_P1;HPM_P2
2022/03/27 00:00:23;;;;;;;10.83;5.20;;;;;;;;;;5075063;28;20457;-72
2022/03/27 00:02:52;;;;;;;9.90;7.03;;;;;;;;;;5078782;28;20476;-72
2022/03/27 00:05:20;;;;;;;11.80;9.20;;;;;;;;;;5078329;28;20575;-71
2022/03/27 00:07:48;;;;;;;17.87;12.10;;;;;;;;;;5078158;28;20484;-72
2022/03/27 00:10:16;;;;;;;9.57;4.87;;;;;;;;;;5078156;28;20539;-72
2022/03/27 00:12:47;;;;;;;11.27;7.20;;;;;;;;;;5079242;28;20760;-72
2022/03/27 00:15:17;;;;;;;11.73;6.07;;;;;;;;;;5070288;28;20456;-72
2022/03/27 00:17:48;;;;;;;12.83;5.63;;;;;;;;;;5070269;28;20464;-72
2022/03/27 00:20:16;;;;;;;12.77;7.50;;;;;;;;;;5070871;28;20448;-72
2022/03/27 00:22:46;;;;;;;10.40;6.40;;;;;;;;;;5078129;28;20476;-72
2022/03/27 00:25:13;;;;;;;12.50;6.60;;;;;;;;;;5064439;28;20488;-71
2022/03/27 00:27:41;;;;;;;12.70;8.07;;;;;;;;;;5075743;28;20494;-72
2022/03/27 00:30:10;;;;;;;10.97;6.87;;;;;;;;;;5078603;28;20460;-71
2022/03/27 00:32:39;;;;;;;9.30;4.83;;;;;;;;;;5063047;28;20458;-72
2022/03/27 00:35:07;;;;;;;12.67;6.30;;;;;;;;;;5058492;28;20454;-72
2022/03/27 00:37:47;;;;;;;10.23;5.77;;;;;;;;;;5058655;28;20453;-71
2022/03/27 00:40:15;;;;;;;15.10;5.00;;;;;;;;;;5058152;28;20452;-72
2022/03/27 00:42:45;;;;;;;27.80;12.07;;;;;;;;;;5058740;28;20471;-71
2022/03/27 00:45:12;;;;;;;9.10;4.70;;;;;;;;;;5057494;28;20433;-72
2022/03/27 00:47:43;;;;;;;20.60;19.23;;;;;;;;;;5058207;28;20877;-72
2022/03/27 00:50:11;;;;;;;28.30;26.03;;;;;;;;;;5058285;28;20445;-72
2022/03/27 00:52:39;;;;;;;15.97;14.27;;;;;;;;;;5058837;28;20449;-72
2022/03/27 00:55:08;;;;;;;12.87;6.07;;;;;;;;;;5058293;28;20485;-72
2022/03/27 00:57:36;;;;;;;12.60;4.80;;;;;;;;;;5057929;28;20523;-72
2022/03/27 01:00:11;;;;;;;19.10;10.87;;;;;;;;;;5057110;28;20532;-72
2022/03/27 01:02:41;;;;;;;21.03;15.10;;;;;;;;;;5057408;28;20441;-72
2022/03/27 01:05:13;;;;;;;29.97;27.67;;;;;;;;;;5057779;28;20457;-72
2022/03/27 01:07:45;;;;;;;23.13;21.50;;;;;;;;;;5067080;28;20785;-72
2022/03/27 01:10:12;;;;;;;11.13;7.00;;;;;;;;;;5077328;28;20849;-72
2022/03/27 01:12:41;;;;;;;14.80;13.50;;;;;;;;;;5078170;28;20510;-72
2022/03/27 01:15:23;;;;;;;11.67;10.60;;;;;;;;;;5077913;28;20889;-72
2022/03/27 01:17:52;;;;;;;14.20;12.33;;;;;;;;;;5077946;28;20939;-72
2022/03/27 01:20:30;;;;;;;22.70;20.87;;;;;;;;;;5078048;28;20518;-72
2022/03/27 01:22:58;;;;;;;29.03;26.83;;;;;;;;;;5077356;28;20456;-72
2022/03/27 01:25:29;;;;;;;21.53;19.50;;;;;;;;;;5077766;28;21020;-72
2022/03/27 01:27:57;;;;;;;16.17;8.00;;;;;;;;;;5059757;28;20484;-72
2022/03/27 01:30:25;;;;;;;16.10;14.77;;;;;;;;;;5058400;28;20523;-72
2022/03/27 01:32:54;;;;;;;30.03;27.67;;;;;;;;;;5057619;28;20980;-72
2022/03/27 01:35:22;;;;;;;29.43;27.23;;;;;;;;;;5057149;28;20492;-72
2022/03/27 01:37:51;;;;;;;11.53;10.37;;;;;;;;;;5057453;28;20704;-72
2022/03/27 01:40:19;;;;;;;30.13;27.60;;;;;;;;;;5064228;28;20495;-72
2022/03/27 01:42:52;;;;;;;29.03;26.97;;;;;;;;;;5078064;28;20465;-72
2022/03/27 01:45:20;;;;;;;18.90;17.40;;;;;;;;;;5077793;28;20954;-72
2022/03/27 01:47:48;;;;;;;28.13;25.90;;;;;;;;;;5077206;28;21009;-73
2022/03/27 01:50:19;;;;;;;15.27;13.93;;;;;;;;;;5076895;28;20461;-72
2022/03/27 01:52:47;;;;;;;20.97;19.17;;;;;;;;;;5076742;28;20815;-71
2022/03/27 01:55:16;;;;;;;27.10;24.93;;;;;;;;;;5077441;28;20900;-72
2022/03/27 01:57:45;;;;;;;28.93;26.37;;;;;;;;;;5077197;28;20445;-73
2022/03/27 02:00:14;;;;;;;15.00;5.57;;;;;;;;;;5078015;28;20464;-72
2022/03/27 02:02:42;;;;;;;22.93;20.60;;;;;;;;;;5077569;28;20468;-72
2022/03/27 02:05:11;;;;;;;19.97;18.27;;;;;;;;;;5076924;28;20470;-72
2022/03/27 02:07:42;;;;;;;21.47;19.40;;;;;;;;;;5076733;28;20567;-73
2022/03/27 02:10:10;;;;;;;5.73;4.07;;;;;;;;;;5076884;28;20452;-72
2022/03/27 02:12:40;;;;;;;17.73;16.10;;;;;;;;;;5076241;28;20531;-72
2022/03/27 02:15:09;;;;;;;13.60;10.63;;;;;;;;;;5077453;28;20457;-72
2022/03/27 02:17:40;;;;;;;25.67;23.67;;;;;;;;;;5076614;28;20448;-73
2022/03/27 02:20:10;;;;;;;11.30;10.20;;;;;;;;;;5076399;28;20525;-72
2022/03/27 02:22:38;;;;;;;10.70;5.20;;;;;;;;;;5076963;28;20449;-73
2022/03/27 02:25:06;;;;;;;37.63;33.97;;;;;;;;;;5076400;28;20480;-73
2022/03/27 02:27:34;;;;;;;10.83;4.60;;;;;;;;;;5076036;28;20923;-73
2022/03/27 02:30:04;;;;;;;38.80;34.93;;;;;;;;;;5076557;28;20856;-73
2022/03/27 02:32:35;;;;;;;39.50;35.83;;;;;;;;;;5075882;28;20449;-72
2022/03/27 02:35:03;;;;;;;8.03;4.80;;;;;;;;;;5075827;28;20460;-73
2022/03/27 02:37:33;;;;;;;13.97;7.17;;;;;;;;;;5075981;28;20729;-72
2022/03/27 02:40:01;;;;;;;60.97;47.03;;;;;;;;;;5076261;28;20552;-72
2022/03/27 02:42:29;;;;;;;42.67;38.40;;;;;;;;;;5076631;28;20448;-73
2022/03/27 02:44:57;;;;;;;28.13;25.63;;;;;;;;;;5076167;28;20444;-72
2022/03/27 02:47:27;;;;;;;41.07;37.20;;;;;;;;;;5076180;28;20943;-72
2022/03/27 02:49:57;;;;;;;38.17;34.40;;;;;;;;;;5076112;28;20449;-72
2022/03/27 02:52:25;;;;;;;8.53;5.17;;;;;;;;;;5075302;28;20860;-73
2022/03/27 02:54:53;;;;;;;37.20;33.70;;;;;;;;;;5075962;28;20459;-72
2022/03/27 02:57:24;;;;;;;35.97;32.57;;;;;;;;;;5075447;28;20449;-72
2022/03/27 02:59:53;;;;;;;30.97;28.27;;;;;;;;;;5076441;28;20815;-72
2022/03/27 03:02:22;;;;;;;32.90;29.90;;;;;;;;;;5076397;28;20456;-72
2022/03/27 03:04:52;;;;;;;32.30;29.50;;;;;;;;;;5075962;28;20462;-72
2022/03/27 03:07:20;;;;;;;40.93;35.47;;;;;;;;;;5075293;28;20578;-72
2022/03/27 03:09:48;;;;;;;34.87;31.40;;;;;;;;;;5076454;28;20887;-72
2022/03/27 03:12:16;;;;;;;16.83;9.03;;;;;;;;;;5076398;28;20452;-72
2022/03/27 03:14:44;;;;;;;18.07;16.87;;;;;;;;;;5075618;28;20448;-72
2022/03/27 03:17:13;;;;;;;23.20;21.33;;;;;;;;;;5076461;28;20539;-72
2022/03/27 03:19:41;;;;;;;9.17;5.23;;;;;;;;;;5075752;28;20966;-72
2022/03/27 03:22:14;;;;;;;21.03;19.30;;;;;;;;;;5075520;28;20458;-72
2022/03/27 03:24:42;;;;;;;23.37;21.70;;;;;;;;;;5075758;28;20453;-72
2022/03/27 03:27:13;;;;;;;24.90;23.10;;;;;;;;;;5076388;28;20477;-72
2022/03/27 03:29:41;;;;;;;6.63;4.17;;;;;;;;;;5074921;28;20559;-72
2022/03/27 03:32:09;;;;;;;8.00;4.87;;;;;;;;;;5075194;28;20451;-72
2022/03/27 03:34:37;;;;;;;10.70;9.27;;;;;;;;;;5075625;28;20457;-72
2022/03/27 03:37:05;;;;;;;22.00;20.10;;;;;;;;;;5076062;28;20453;-72
2022/03/27 03:39:34;;;;;;;12.40;5.17;;;;;;;;;;5075892;28;20496;-72
2022/03/27 03:42:02;;;;;;;11.83;7.53;;;;;;;;;;5075447;28;20535;-72
2022/03/27 03:44:30;;;;;;;20.03;4.80;;;;;;;;;;5076078;28;20869;-72
2022/03/27 03:46:58;;;;;;;7.50;4.20;;;;;;;;;;5075424;28;20465;-72
2022/03/27 03:49:26;;;;;;;7.43;4.33;;;;;;;;;;5075656;28;20935;-72
2022/03/27 03:51:54;;;;;;;32.43;28.43;;;;;;;;;;5075477;28;20903;-72
2022/03/27 03:54:22;;;;;;;32.13;28.83;;;;;;;;;;5075334;28;20567;-72
2022/03/27 03:56:51;;;;;;;8.97;4.97;;;;;;;;;;5075768;28;20784;-72
2022/03/27 03:59:19;;;;;;;13.03;5.57;;;;;;;;;;5075735;28;20464;-72
2022/03/27 04:01:47;;;;;;;16.90;6.53;;;;;;;;;;5074792;28;20752;-72
2022/03/27 04:04:16;;;;;;;43.43;36.00;;;;;;;;;;5075284;28;20516;-72
2022/03/27 04:06:44;;;;;;;11.60;6.63;;;;;;;;;;5075426;28;20733;-72
2022/03/27 04:09:15;;;;;;;14.83;6.57;;;;;;;;;;5075485;28;20461;-72
2022/03/27 04:11:43;;;;;;;31.10;28.10;;;;;;;;;;5074786;28;20536;-72
2022/03/27 04:14:12;;;;;;;28.67;25.97;;;;;;;;;;5075082;28;20771;-72
2022/03/27 04:16:40;;;;;;;8.73;5.70;;;;;;;;;;5075212;28;20444;-72
2022/03/27 04:19:08;;;;;;;17.37;6.47;;;;;;;;;;5074774;28;20487;-72
2022/03/27 04:21:36;;;;;;;9.33;4.77;;;;;;;;;;5074720;28;20880;-72
2022/03/27 04:24:04;;;;;;;14.33;7.97;;;;;;;;;;5074912;28;20460;-72
2022/03/27 04:26:32;;;;;;;21.77;20.20;;;;;;;;;;5074752;28;20460;-72
2022/03/27 04:29:00;;;;;;;31.07;27.90;;;;;;;;;;5074548;28;20484;-72
2022/03/27 04:31:29;;;;;;;22.97;20.60;;;;;;;;;;5074698;28;20448;-72
2022/03/27 04:34:00;;;;;;;23.13;20.83;;;;;;;;;;5074844;28;20470;-72
2022/03/27 04:36:28;;;;;;;21.63;19.57;;;;;;;;;;5078644;28;20464;-72
2022/03/27 04:38:56;;;;;;;30.03;27.37;;;;;;;;;;5078916;28;20766;-72
2022/03/27 04:41:24;;;;;;;18.10;14.67;;;;;;;;;;5079234;28;20459;-72
2022/03/27 04:43:52;;;;;;;33.70;30.40;;;;;;;;;;5078529;28;20468;-72
2022/03/27 04:46:20;;;;;;;26.50;7.77;;;;;;;;;;5078752;28;20453;-72
2022/03/27 04:48:59;;;;;;;23.90;17.33;;;;;;;;;;5078866;28;20645;-72
2022/03/27 04:51:27;;;;;;;14.90;5.43;;;;;;;;;;5078589;28;20432;-72
2022/03/27 04:53:55;;;;;;;16.90;11.87;;;;;;;;;;5078533;28;20480;-73
2022/03/27 04:56:22;;;;;;;20.53;18.73;;;;;;;;;;5078305;28;20463;-72
2022/03/27 04:58:50;;;;;;;17.77;6.73;;;;;;;;;;5078934;28;20488;-72
2022/03/27 05:01:18;;;;;;;8.87;4.90;;;;;;;;;;5077909;28;20491;-72
2022/03/27 05:03:53;;;;;;;8.10;4.20;;;;;;;;;;5078426;28;20563;-72
2022/03/27 05:06:21;;;;;;;19.00;17.60;;;;;;;;;;5078104;28;20860;-72
2022/03/27 05:08:51;;;;;;;7.50;3.90;;;;;;;;;;5078286;28;20499;-72
2022/03/27 05:11:18;;;;;;;6.83;3.80;;;;;;;;;;5077925;28;20467;-72
2022/03/27 05:13:46;;;;;;;9.93;5.33;;;;;;;;;;5078537;28;20853;-72
2022/03/27 05:16:14;;;;;;;8.93;4.87;;;;;;;;;;5078259;28;20445;-72
2022/03/27 05:18:42;;;;;;;8.53;4.43;;;;;;;;;;5077920;28;20476;-72
2022/03/27 05:21:11;;;;;;;9.03;4.93;;;;;;;;;;5077825;28;20452;-72
2022/03/27 05:23:39;;;;;;;13.73;8.20;;;;;;;;;;5077840;28;20783;-72
2022/03/27 05:26:07;;;;;;;7.93;5.67;;;;;;;;;;5078281;28;20502;-72
2022/03/27 05:28:35;;;;;;;7.07;5.03;;;;;;;;;;5077378;28;20488;-72
2022/03/27 05:31:08;;;;;;;10.03;5.20;;;;;;;;;;5077549;28;20432;-72
2022/03/27 05:33:35;;;;;;;7.07;4.43;;;;;;;;;;5077130;28;20436;-72
2022/03/27 05:36:03;;;;;;;7.43;5.30;;;;;;;;;;5077367;28;20448;-72
2022/03/27 05:38:33;;;;;;;8.77;5.10;;;;;;;;;;5077035;28;20449;-71
2022/03/27 05:41:01;;;;;;;13.03;5.37;;;;;;;;;;5076780;28;20459;-71
2022/03/27 05:43:29;;;;;;;10.00;4.07;;;;;;;;;;5077189;28;20529;-72
2022/03/27 05:45:57;;;;;;;11.33;5.37;;;;;;;;;;5077371;28;20453;-72
2022/03/27 05:48:25;;;;;;;8.70;4.60;;;;;;;;;;5077743;28;20503;-71
2022/03/27 05:50:53;;;;;;;16.23;5.57;;;;;;;;;;5077178;28;20506;-71
2022/03/27 05:53:21;;;;;;;5.97;4.63;;;;;;;;;;5077123;28;20457;-71
2022/03/27 05:55:50;;;;;;;7.63;4.83;;;;;;;;;;5077265;28;20452;-73
2022/03/27 05:58:18;;;;;;;11.53;5.23;;;;;;;;;;5076929;28;20849;-72
2022/03/27 06:00:46;;;;;;;7.77;5.23;;;;;;;;;;5077376;28;20464;-71
2022/03/27 06:03:14;;;;;;;7.87;5.17;;;;;;;;;;5078344;28;20452;-70
2022/03/27 06:05:46;;;;;;;6.97;5.27;;;;;;;;;;5076992;28;20535;-72
2022/03/27 06:08:14;;;;;;;11.77;10.67;;;;;;;;;;5077296;28;20492;-72
2022/03/27 06:10:42;;;;;;;16.77;15.57;;;;;;;;;;5076910;28;20457;-72
2022/03/27 06:13:11;;;;;;;9.40;6.07;;;;;;;;;;5076606;28;20510;-72
2022/03/27 06:15:39;;;;;;;13.10;12.00;;;;;;;;;;5076819;28;20448;-72
2022/03/27 06:18:10;;;;;;;15.70;14.53;;;;;;;;;;5076956;28;20453;-72
2022/03/27 06:20:38;;;;;;;12.43;10.33;;;;;;;;;;5076807;28;20453;-72
2022/03/27 06:23:07;;;;;;;11.67;7.97;;;;;;;;;;5075713;28;20915;-72
2022/03/27 06:25:35;;;;;;;10.50;7.10;;;;;;;;;;5076577;28;20456;-72
2022/03/27 06:28:04;;;;;;;10.63;6.40;;;;;;;;;;5075865;28;20527;-72
2022/03/27 06:30:34;;;;;;;8.43;4.27;;;;;;;;;;5076712;28;20824;-72
2022/03/27 06:33:03;;;;;;;7.97;5.23;;;;;;;;;;5077072;28;20722;-72
2022/03/27 06:35:31;;;;;;;7.30;4.40;;;;;;;;;;5076693;28;20460;-72
2022/03/27 06:37:59;;;;;;;9.40;5.43;;;;;;;;;;5075625;28;20460;-72
2022/03/27 06:40:27;;;;;;;7.83;6.97;;;;;;;;;;5075639;28;20724;-72
2022/03/27 06:42:55;;;;;;;8.90;5.30;;;;;;;;;;5076116;28;20457;-71
2022/03/27 06:45:23;;;;;;;7.13;4.30;;;;;;;;;;5076452;28;20453;-70
2022/03/27 06:47:53;;;;;;;10.30;4.90;;;;;;;;;;5076614;28;20449;-71
2022/03/27 06:50:22;;;;;;;8.57;6.37;;;;;;;;;;5075074;28;20452;-71
2022/03/27 06:52:51;;;;;;;6.23;5.20;;;;;;;;;;5075006;28;20456;-71
2022/03/27 06:55:19;;;;;;;12.80;4.00;;;;;;;;;;5075206;28;20881;-71
2022/03/27 06:57:47;;;;;;;6.20;5.33;;;;;;;;;;5075429;28;20775;-71
2022/03/27 07:03:18;;;;;;;6.50;5.90;;;;;;;;;;5072459;28;20435;-73
2022/03/27 07:05:46;;;;;;;8.83;4.33;;;;;;;;;;5075009;28;20766;-72
2022/03/27 07:08:14;;;;;;;11.73;5.10;;;;;;;;;;5069564;28;20859;-72
2022/03/27 07:10:43;;;;;;;3.90;3.33;;;;;;;;;;5075314;28;20784;-72
2022/03/27 07:13:12;;;;;;;8.00;7.20;;;;;;;;;;5069163;28;20511;-72
2022/03/27 07:15:40;;;;;;;7.10;5.40;;;;;;;;;;5075271;28;20452;-72
2022/03/27 07:18:08;;;;;;;10.93;8.87;;;;;;;;;;5066457;28;20480;-72
2022/03/27 07:20:40;;;;;;;6.20;5.43;;;;;;;;;;5067306;28;20747;-72
2022/03/27 07:23:12;;;;;;;9.23;6.03;;;;;;;;;;5067809;28;20460;-72
2022/03/27 07:25:40;;;;;;;8.53;5.40;;;;;;;;;;5069190;28;20493;-72
2022/03/27 07:28:09;;;;;;;7.53;6.83;;;;;;;;;;5074675;28;20471;-72
2022/03/27 07:30:37;;;;;;;13.03;6.03;;;;;;;;;;5074947;28;20448;-72
2022/03/27 07:33:09;;;;;;;7.43;4.90;;;;;;;;;;5072536;28;20537;-73
2022/03/27 07:35:38;;;;;;;10.40;7.77;;;;;;;;;;5069400;28;20453;-71
2022/03/27 07:38:07;;;;;;;11.80;6.30;;;;;;;;;;5075403;28;20468;-72
2022/03/27 07:40:35;;;;;;;6.33;5.40;;;;;;;;;;5068243;28;20457;-72
2022/03/27 07:43:02;;;;;;;17.80;16.10;;;;;;;;;;5066389;28;20919;-72
2022/03/27 07:45:31;;;;;;;11.63;10.60;;;;;;;;;;5069896;28;20900;-72
2022/03/27 07:48:01;;;;;;;11.00;7.57;;;;;;;;;;5062490;28;20471;-73
2022/03/27 07:50:33;;;;;;;7.77;5.27;;;;;;;;;;5074364;28;20456;-72
2022/03/27 07:53:04;;;;;;;8.53;6.50;;;;;;;;;;5059826;28;20457;-72
2022/03/27 07:55:32;;;;;;;10.70;7.40;;;;;;;;;;5074703;28;20868;-73
2022/03/27 07:58:00;;;;;;;6.43;5.80;;;;;;;;;;5073932;28;20802;-74
2022/03/27 08:00:29;;;;;;;8.20;7.30;;;;;;;;;;5074742;28;20547;-74
2022/03/27 08:02:57;;;;;;;10.43;5.80;;;;;;;;;;5075161;28;20519;-74
2022/03/27 08:05:28;;;;;;;11.07;6.57;;;;;;;;;;5074122;28;20459;-72
2022/03/27 08:08:08;;;;;;;7.90;6.23;;;;;;;;;;5075147;28;20998;-75
2022/03/27 08:10:43;;;;;;;11.00;8.70;;;;;;;;;;5077244;28;20527;-75
2022/03/27 08:13:13;;;;;;;16.90;7.07;;;;;;;;;;5077112;28;20953;-71
2022/03/27 08:15:41;;;;;;;10.00;7.27;;;;;;;;;;5078135;28;20455;-74
2022/03/27 08:18:09;;;;;;;18.10;12.67;;;;;;;;;;5072319;28;20455;-74
2022/03/27 08:20:40;;;;;;;17.33;9.53;;;;;;;;;;5076860;28;20459;-73
2022/03/27 08:23:11;;;;;;;28.87;17.30;;;;;;;;;;5077716;28;20539;-73
2022/03/27 08:28:31;;;;;;;16.83;14.17;;;;;;;;;;5076433;28;20947;-74
2022/03/27 08:30:59;;;;;;;16.63;10.80;;;;;;;;;;5074760;28;20465;-73
2022/03/27 08:33:28;;;;;;;20.33;10.13;;;;;;;;;;5077632;28;20829;-73
2022/03/27 08:36:03;;;;;;;20.60;9.67;;;;;;;;;;5076940;28;20833;-73
2022/03/27 08:38:31;;;;;;;18.70;9.57;;;;;;;;;;5076042;28;20455;-73
2022/03/27 08:41:02;;;;;;;16.77;10.50;;;;;;;;;;5076395;28;20813;-73
2022/03/27 08:43:32;;;;;;;18.57;11.63;;;;;;;;;;5076793;28;20475;-73
2022/03/27 08:46:00;;;;;;;19.73;11.30;;;;;;;;;;5077851;28;20452;-73
2022/03/27 08:48:40;;;;;;;13.93;8.37;;;;;;;;;;5075745;28;20732;-73
2022/03/27 08:51:11;;;;;;;12.97;7.87;;;;;;;;;;5076018;28;20455;-72
2022/03/27 08:53:49;;;;;;;19.00;12.20;;;;;;;;;;5063824;28;20763;-72
2022/03/27 08:56:20;;;;;;;18.50;10.43;;;;;;;;;;5056912;28;20875;-74
2022/03/27 08:58:48;;;;;;;20.13;10.10;;;;;;;;;;5056166;28;20457;-72
2022/03/27 09:01:17;;;;;;;16.50;9.20;;;;;;;;;;5055874;28;20472;-73
2022/03/27 09:03:48;;;;;;;18.73;9.70;;;;;;;;;;5055906;28;20548;-73
2022/03/27 09:06:18;;;;;;;19.10;10.73;;;;;;;;;;5057029;28;20441;-73
2022/03/27 09:08:45;;;;;;;22.93;10.43;;;;;;;;;;5057188;28;20493;-73
2022/03/27 09:11:16;;;;;;;12.87;8.07;;;;;;;;;;5057686;28;20473;-73
2022/03/27 09:13:52;;;;;;;13.57;10.23;;;;;;;;;;5059665;28;20957;-73
2022/03/27 09:16:20;;;;;;;19.20;10.33;;;;;;;;;;5077095;28;20471;-73
2022/03/27 09:18:48;;;;;;;17.40;10.70;;;;;;;;;;5076550;28;20461;-72
2022/03/27 09:21:17;;;;;;;15.90;9.70;;;;;;;;;;5073680;28;20664;-74
2022/03/27 09:23:45;;;;;;;18.73;10.60;;;;;;;;;;5074722;28;20522;-74
2022/03/27 09:26:20;;;;;;;17.20;10.20;;;;;;;;;;5074245;28;20520;-73
2022/03/27 09:28:52;;;;;;;17.00;9.70;;;;;;;;;;5066447;28;20484;-73
2022/03/27 09:31:34;;;;;;;14.43;9.07;;;;;;;;;;5073843;28;20504;-73
2022/03/27 09:34:08;;;;;;;14.03;9.73;;;;;;;;;;5075878;28;20551;-73
2022/03/27 09:36:39;;;;;;;19.03;9.40;;;;;;;;;;5075777;28;20479;-73
2022/03/27 09:39:11;;;;;;;16.73;8.23;;;;;;;;;;5075826;28;20492;-73
2022/03/27 09:41:42;;;;;;;14.90;9.77;;;;;;;;;;5075503;28;20482;-73
2022/03/27 09:44:15;;;;;;;12.60;8.60;;;;;;;;;;5070289;28;20457;-73
2022/03/27 09:46:56;;;;;;;13.40;9.17;;;;;;;;;;5076504;28;20449;-73
2022/03/27 09:49:29;;;;;;;16.40;10.17;;;;;;;;;;5075860;28;20499;-74
2022/03/27 09:51:58;;;;;;;18.80;11.23;;;;;;;;;;5075265;28;20452;-74
2022/03/27 09:54:27;;;;;;;11.30;7.13;;;;;;;;;;5075384;28;20522;-74
2022/03/27 09:56:56;;;;;;;15.97;11.80;;;;;;;;;;5074963;28;20453;-73
2022/03/27 09:59:32;;;;;;;11.70;7.90;;;;;;;;;;5074507;28;20740;-73
2022/03/27 10:02:20;;;;;;;12.70;7.27;;;;;;;;;;5074485;28;20468;-74
2022/03/27 10:04:58;;;;;;;14.50;8.87;;;;;;;;;;5075603;28;20465;-74
2022/03/27 10:07:26;;;;;;;13.20;9.07;;;;;;;;;;5075556;28;20461;-75
2022/03/27 10:09:55;;;;;;;18.40;11.53;;;;;;;;;;5075432;28;20520;-74
2022/03/27 10:12:27;;;;;;;17.57;10.57;;;;;;;;;;5074992;28;20549;-74
2022/03/27 10:14:57;;;;;;;17.87;10.50;;;;;;;;;;5075063;28;20468;-72
2022/03/27 10:17:27;;;;;;;14.87;10.00;;;;;;;;;;5074695;28;20456;-73
2022/03/27 10:19:57;;;;;;;19.23;11.50;;;;;;;;;;5070285;28;20458;-72
2022/03/27 10:22:27;;;;;;;16.90;9.40;;;;;;;;;;5069408;28;20781;-71
2022/03/27 10:24:56;;;;;;;15.27;8.63;;;;;;;;;;5071782;28;20713;-71
2022/03/27 10:27:25;;;;;;;14.00;9.70;;;;;;;;;;5071764;28;20502;-71
2022/03/27 10:29:54;;;;;;;15.70;11.53;;;;;;;;;;5068117;28;20572;-71
2022/03/27 10:32:24;;;;;;;17.67;11.60;;;;;;;;;;5052825;28;20553;-72
2022/03/27 10:34:56;;;;;;;21.67;17.50;;;;;;;;;;5053547;28;20461;-70
2022/03/27 10:37:32;;;;;;;15.60;13.00;;;;;;;;;;5053693;28;20605;-72
2022/03/27 10:40:04;;;;;;;18.57;13.83;;;;;;;;;;5051667;28;20511;-72
2022/03/27 10:42:36;;;;;;;19.33;15.13;;;;;;;;;;5052005;28;20450;-72
2022/03/27 10:45:08;;;;;;;19.03;17.00;;;;;;;;;;5053295;28;20836;-73
2022/03/27 10:47:44;;;;;;;23.87;19.40;;;;;;;;;;5053467;28;20506;-72
2022/03/27 10:50:24;;;;;;;19.47;16.83;;;;;;;;;;5059275;28;20972;-73
2022/03/27 10:53:08;;;;;;;21.23;17.50;;;;;;;;;;5072855;28;20456;-72
2022/03/27 10:55:38;;;;;;;21.20;18.87;;;;;;;;;;5069708;28;20559;-72
2022/03/27 10:58:21;;;;;;;20.93;16.77;;;;;;;;;;5055384;28;20452;-72
2022/03/27 11:00:50;;;;;;;20.30;16.40;;;;;;;;;;5067578;28;20499;-73
2022/03/27 11:03:33;;;;;;;22.07;19.33;;;;;;;;;;5057953;28;20559;-72
2022/03/27 11:06:03;;;;;;;19.73;17.63;;;;;;;;;;5071887;28;20543;-72
2022/03/27 11:08:49;;;;;;;21.87;17.30;;;;;;;;;;5068494;28;20455;-71
2022/03/27 11:11:35;;;;;;;21.03;18.90;;;;;;;;;;5070002;28;20480;-70
2022/03/27 11:14:02;;;;;;;22.13;19.70;;;;;;;;;;5072354;28;20449;-71
2022/03/27 11:16:30;;;;;;;19.00;13.70;;;;;;;;;;5072301;28;20455;-71
2022/03/27 11:18:58;;;;;;;18.80;16.53;;;;;;;;;;5068213;28;20473;-71
2022/03/27 11:21:44;;;;;;;16.37;13.17;;;;;;;;;;5056730;28;20886;-70
2022/03/27 11:24:29;;;;;;;16.03;14.30;;;;;;;;;;5051932;28;20464;-70
2022/03/27 11:26:59;;;;;;;20.47;18.30;;;;;;;;;;5073014;28;20712;-70
2022/03/27 11:29:30;;;;;;;19.03;15.77;;;;;;;;;;5071434;28;20600;-73
2022/03/27 11:32:08;;;;;;;21.57;17.27;;;;;;;;;;5069562;28;20873;-72
2022/03/27 11:34:37;;;;;;;23.53;19.40;;;;;;;;;;5068787;28;20462;-71
2022/03/27 11:37:26;;;;;;;17.50;15.80;;;;;;;;;;5071741;28;20448;-72
2022/03/27 11:39:56;;;;;;;17.60;15.77;;;;;;;;;;5065934;28;20476;-71
2022/03/27 11:42:28;;;;;;;28.27;25.80;;;;;;;;;;5070277;28;21439;-72
2022/03/27 11:45:24;;;;;;;22.27;18.87;;;;;;;;;;5065936;28;20711;-71
2022/03/27 11:47:54;;;;;;;22.93;20.53;;;;;;;;;;5059320;28;20441;-72
2022/03/27 11:50:29;;;;;;;21.27;19.17;;;;;;;;;;5052261;28;20542;-72
2022/03/27 11:52:57;;;;;;;18.80;13.10;;;;;;;;;;5054763;28;20457;-71
2022/03/27 11:55:29;;;;;;;18.33;12.80;;;;;;;;;;5065769;28;20514;-72
2022/03/27 11:58:03;;;;;;;16.47;13.30;;;;;;;;;;5072165;28;20505;-73
2022/03/27 12:00:37;;;;;;;18.43;12.37;;;;;;;;;;5072175;28;20760;-73
2022/03/27 12:03:05;;;;;;;19.40;10.97;;;;;;;;;;5071425;28;20458;-72
2022/03/27 12:05:37;;;;;;;16.37;13.50;;;;;;;;;;5069732;28;20456;-72
2022/03/27 12:08:05;;;;;;;20.30;17.10;;;;;;;;;;5069281;28;20445;-72
2022/03/27 12:10:41;;;;;;;18.57;15.83;;;;;;;;;;5071380;28;20520;-72
2022/03/27 12:13:11;;;;;;;21.90;18.80;;;;;;;;;;5070477;28;20513;-72
2022/03/27 12:15:45;;;;;;;15.17;13.03;;;;;;;;;;5070761;28;20449;-72
2022/03/27 12:18:14;;;;;;;19.60;15.07;;;;;;;;;;5070289;28;20990;-71
2022/03/27 12:20:51;;;;;;;16.13;14.43;;;;;;;;;;5071254;28;20510;-73
2022/03/27 12:23:23;;;;;;;27.17;24.70;;;;;;;;;;5068231;28;20882;-74
2022/03/27 12:26:00;;;;;;;16.37;13.40;;;;;;;;;;5062175;28;20886;-72
2022/03/27 12:31:24;;;;;;;18.13;14.70;;;;;;;;;;5067794;28;20463;-72
2022/03/27 12:33:56;;;;;;;16.13;13.00;;;;;;;;;;5064141;28;20899;-74
2022/03/27 12:36:30;;;;;;;14.60;10.50;;;;;;;;;;5070722;28;20449;-72
2022/03/27 12:39:01;;;;;;;19.07;14.40;;;;;;;;;;5070876;28;20527;-73
2022/03/27 12:41:42;;;;;;;52.33;32.77;;;;;;;;;;5070342;28;20520;-73
2022/03/27 12:44:10;;;;;;;17.33;13.53;;;;;;;;;;5070720;28;20495;-72
2022/03/27 12:46:56;;;;;;;14.60;11.20;;;;;;;;;;5071526;28;20452;-72
2022/03/27 12:49:24;;;;;;;11.53;8.77;;;;;;;;;;5071652;28;20468;-71
2022/03/27 12:52:05;;;;;;;11.70;9.97;;;;;;;;;;5062595;28;20559;-72
2022/03/27 12:54:33;;;;;;;19.57;13.83;;;;;;;;;;5068716;28;20559;-71
2022/03/27 12:57:10;;;;;;;14.73;13.13;;;;;;;;;;5068836;28;20868;-72
2022/03/27 12:59:49;;;;;;;13.63;10.90;;;;;;;;;;5060483;28;20521;-72
2022/03/27 13:02:27;;;;;;;14.97;12.30;;;;;;;;;;5073728;28;20448;-71
2022/03/27 13:05:19;;;;;;;14.77;11.30;;;;;;;;;;5073752;28;20460;-72
2022/03/27 13:07:56;;;;;;;12.23;9.70;;;;;;;;;;5073767;28;20457;-72
2022/03/27 13:10:24;;;;;;;13.40;10.30;;;;;;;;;;5073727;28;20487;-72
2022/03/27 13:13:01;;;;;;;14.87;9.93;;;;;;;;;;5069298;28;20437;-73
2022/03/27 13:15:44;;;;;;;13.40;10.20;;;;;;;;;;5070145;28;20910;-72
2022/03/27 13:18:22;;;;;;;15.27;12.73;;;;;;;;;;5071583;28;20436;-72
2022/03/27 13:20:50;;;;;;;13.87;12.50;;;;;;;;;;5071813;28;20445;-72
2022/03/27 13:23:22;;;;;;;11.03;9.90;;;;;;;;;;5069761;28;20939;-73
2022/03/27 13:25:54;;;;;;;14.83;10.40;;;;;;;;;;5072939;28;20480;-73
2022/03/27 13:28:26;;;;;;;14.97;13.50;;;;;;;;;;5066040;28;20794;-73
2022/03/27 13:30:55;;;;;;;13.23;11.83;;;;;;;;;;5067972;28;20842;-72
2022/03/27 13:33:29;;;;;;;14.00;12.00;;;;;;;;;;5072511;28;20464;-72
2022/03/27 13:35:59;;;;;;;17.33;15.83;;;;;;;;;;5068994;28;20711;-72
2022/03/27 13:38:31;;;;;;;15.63;14.23;;;;;;;;;;5070139;28;20449;-71
2022/03/27 13:43:49;;;;;;;27.17;25.27;;;;;;;;;;5071557;28;20424;-72
2022/03/27 13:46:18;;;;;;;48.60;45.53;;;;;;;;;;5072599;28;20444;-72
2022/03/27 13:49:01;;;;;;;20.37;18.77;;;;;;;;;;5065550;28;20473;-71
2022/03/27 13:51:29;;;;;;;26.33;24.63;;;;;;;;;;5067511;28;20484;-73
2022/03/27 13:53:57;;;;;;;13.07;11.70;;;;;;;;;;5071552;28;20448;-73
2022/03/27 13:56:26;;;;;;;23.47;21.73;;;;;;;;;;5074635;28;20822;-72
2022/03/27 13:59:08;;;;;;;16.30;14.97;;;;;;;;;;5073447;28;20457;-72
2022/03/27 14:01:36;;;;;;;12.80;11.17;;;;;;;;;;5072410;28;20500;-72
2022/03/27 14:04:10;;;;;;;11.23;9.13;;;;;;;;;;5074001;28;20464;-73
2022/03/27 14:06:39;;;;;;;15.73;10.57;;;;;;;;;;5061473;28;20461;-73
2022/03/27 14:09:07;;;;;;;11.47;9.67;;;;;;;;;;5053440;28;20537;-72
2022/03/27 14:11:39;;;;;;;9.60;7.73;;;;;;;;;;5065581;28;20508;-73
2022/03/27 14:14:08;;;;;;;10.97;9.83;;;;;;;;;;5059313;28;20465;-73
2022/03/27 14:16:37;;;;;;;14.83;12.20;;;;;;;;;;5068535;28;20445;-73
2022/03/27 14:19:07;;;;;;;13.80;12.03;;;;;;;;;;5073096;28;20468;-72
2022/03/27 14:21:42;;;;;;;14.53;11.90;;;;;;;;;;5071447;28;20502;-73
2022/03/27 14:24:17;;;;;;;18.47;16.67;;;;;;;;;;5053981;28;20475;-73
2022/03/27 14:26:48;;;;;;;13.17;11.90;;;;;;;;;;5062228;28;20483;-73
2022/03/27 14:29:24;;;;;;;13.17;11.60;;;;;;;;;;5053660;28;20892;-73
2022/03/27 14:31:52;;;;;;;10.93;7.00;;;;;;;;;;5053159;28;20496;-72
2022/03/27 14:34:21;;;;;;;10.77;7.87;;;;;;;;;;5070697;28;20566;-71
2022/03/27 14:36:50;;;;;;;16.40;9.33;;;;;;;;;;5064154;28;20485;-72
2022/03/27 14:39:18;;;;;;;16.30;14.57;;;;;;;;;;5052921;28;20472;-70
2022/03/27 14:41:48;;;;;;;13.77;11.10;;;;;;;;;;5053337;28;20438;-72
2022/03/27 14:44:17;;;;;;;13.13;8.60;;;;;;;;;;5062866;28;20496;-73
2022/03/27 14:46:48;;;;;;;9.30;7.30;;;;;;;;;;5065110;28;20448;-72
2022/03/27 14:49:18;;;;;;;13.33;12.03;;;;;;;;;;5073527;28;20873;-73
2022/03/27 14:51:46;;;;;;;17.53;11.67;;;;;;;;;;5072052;28;20512;-72
2022/03/27 14:57:00;;;;;;;10.27;9.23;;;;;;;;;;5073195;28;20415;-72
2022/03/27 14:59:28;;;;;;;25.70;24.00;;;;;;;;;;5072822;28;20571;-72